createdAt,value
2018-03-16T00:00:01.787Z,93.80
2018-03-16T00:02:29.953Z,93.80
2018-03-16T00:04:58.158Z,93.90
2018-03-16T00:07:27.514Z,93.70
2018-03-16T00:09:55.785Z,93.70
2018-03-16T00:12:24.096Z,93.80
2018-03-16T00:14:53.315Z,93.80
2018-03-16T00:17:21.502Z,93.80
2018-03-16T00:19:49.757Z,93.60
2018-03-16T00:22:29.847Z,93.90
2018-03-16T00:24:58.434Z,93.80
2018-03-16T00:27:27.047Z,93.70
2018-03-16T00:29:55.366Z,93.70
2018-03-16T00:32:23.743Z,93.60
2018-03-16T00:34:51.889Z,93.70
2018-03-16T00:37:20.834Z,93.90
2018-03-16T00:39:49.114Z,93.90
2018-03-16T00:42:17.270Z,93.90
2018-03-16T00:44:45.468Z,93.90
2018-03-16T00:47:13.769Z,94.20
2018-03-16T00:49:41.914Z,94.20
2018-03-16T00:52:10.225Z,94.10
2018-03-16T00:54:38.468Z,93.70
2018-03-16T00:57:06.697Z,93.80
2018-03-16T00:59:35.627Z,94.10
2018-03-16T01:02:03.780Z,94.10
2018-03-16T01:04:31.942Z,93.90
2018-03-16T01:07:00.147Z,94.00
2018-03-16T01:09:28.441Z,94.20
2018-03-16T01:11:56.605Z,94.30
2018-03-16T01:14:24.962Z,94.40
2018-03-16T01:16:54.733Z,94.50
2018-03-16T01:19:22.890Z,94.50
2018-03-16T01:21:51.183Z,94.70
2018-03-16T01:24:20.539Z,94.70
2018-03-16T01:26:48.900Z,95.20
2018-03-16T01:29:17.180Z,94.70
2018-03-16T01:31:46.372Z,94.50
2018-03-16T01:34:14.607Z,94.30
2018-03-16T01:36:42.890Z,94.40
2018-03-16T01:39:11.951Z,95.10
2018-03-16T01:41:40.229Z,95.00
2018-03-16T01:44:09.222Z,94.60
2018-03-16T01:46:37.475Z,94.60
2018-03-16T01:49:06.235Z,94.30
2018-03-16T01:51:35.682Z,94.10
2018-03-16T01:54:03.825Z,94.10
2018-03-16T01:56:32.087Z,94.60
2018-03-16T01:59:00.279Z,94.80
2018-03-16T02:01:28.454Z,94.90
2018-03-16T02:03:56.598Z,95.00
2018-03-16T02:06:25.514Z,94.80
2018-03-16T02:08:53.655Z,94.80
2018-03-16T02:11:22.584Z,95.20
2018-03-16T02:13:50.858Z,95.20
2018-03-16T02:16:19.024Z,95.20
2018-03-16T02:18:47.178Z,95.50
2018-03-16T02:21:18.411Z,96.40
2018-03-16T02:23:46.952Z,96.00
2018-03-16T02:26:15.183Z,96.10
2018-03-16T02:28:44.263Z,96.00
2018-03-16T02:31:13.335Z,95.90
2018-03-16T02:33:42.013Z,95.60
2018-03-16T02:36:10.193Z,95.80
2018-03-16T02:38:38.503Z,95.60
2018-03-16T02:41:07.557Z,95.60
2018-03-16T02:43:35.743Z,95.60
2018-03-16T02:46:03.890Z,95.60
2018-03-16T02:48:32.046Z,95.60
2018-03-16T02:51:00.203Z,95.70
2018-03-16T02:53:28.373Z,95.70
2018-03-16T02:55:56.512Z,95.60
2018-03-16T02:58:24.687Z,95.30
2018-03-16T03:00:52.808Z,95.30
2018-03-16T03:03:20.947Z,95.20
2018-03-16T03:05:49.837Z,94.90
2018-03-16T03:08:17.968Z,94.80
2018-03-16T03:10:46.222Z,94.80
2018-03-16T03:13:14.518Z,94.80
2018-03-16T03:15:42.654Z,95.00
2018-03-16T03:18:11.603Z,95.40
2018-03-16T03:20:39.776Z,95.40
2018-03-16T03:23:08.004Z,95.40
2018-03-16T03:25:36.927Z,95.40
2018-03-16T03:28:05.147Z,95.40
2018-03-16T03:30:34.154Z,95.50
2018-03-16T03:33:03.263Z,95.50
2018-03-16T03:35:31.997Z,95.50
2018-03-16T03:38:00.235Z,95.50
2018-03-16T03:40:28.492Z,95.50
2018-03-16T03:42:57.429Z,95.50
2018-03-16T03:45:25.720Z,95.50
2018-03-16T03:47:53.936Z,95.60
2018-03-16T03:50:23.042Z,95.60
2018-03-16T03:52:51.210Z,95.50
2018-03-16T03:55:20.104Z,95.70
2018-03-16T03:57:48.372Z,95.60
2018-03-16T04:00:17.271Z,95.70
2018-03-16T04:02:45.411Z,95.60
2018-03-16T04:05:13.725Z,95.60
2018-03-16T04:07:41.889Z,95.50
2018-03-16T04:10:10.795Z,95.20
2018-03-16T04:12:38.981Z,95.20
2018-03-16T04:15:07.250Z,95.10
2018-03-16T04:17:36.230Z,95.20
2018-03-16T04:20:04.408Z,95.20
2018-03-16T04:22:33.573Z,95.40
2018-03-16T04:25:01.980Z,95.30
2018-03-16T04:27:30.913Z,94.80
2018-03-16T04:29:59.056Z,94.80
2018-03-16T04:32:27.223Z,94.80
2018-03-16T04:34:55.668Z,95.00
2018-03-16T04:37:25.322Z,95.50
2018-03-16T04:39:53.595Z,95.50
2018-03-16T04:42:23.210Z,95.80
2018-03-16T04:44:51.367Z,95.80
2018-03-16T04:47:19.535Z,96.10
2018-03-16T04:49:47.710Z,96.60
2018-03-16T04:52:16.027Z,96.90
2018-03-16T04:54:44.173Z,96.90
2018-03-16T04:57:12.406Z,96.90
2018-03-16T04:59:40.619Z,96.90
2018-03-16T05:02:09.061Z,97.00
2018-03-16T05:04:38.146Z,97.20
2018-03-16T05:07:06.452Z,96.90
2018-03-16T05:09:35.360Z,96.00
2018-03-16T05:12:03.539Z,95.90
2018-03-16T05:14:31.900Z,95.90
2018-03-16T05:17:00.045Z,95.90
2018-03-16T05:19:28.270Z,96.00
2018-03-16T05:21:56.420Z,96.00
2018-03-16T05:24:24.578Z,96.00
2018-03-16T05:26:57.631Z,95.80
2018-03-16T05:29:25.892Z,95.10
2018-03-16T05:31:54.063Z,95.00
2018-03-16T05:34:22.663Z,95.00
2018-03-16T05:36:50.819Z,95.20
2018-03-16T05:39:18.961Z,95.30
2018-03-16T05:41:47.149Z,95.40
2018-03-16T05:44:15.572Z,95.50
2018-03-16T05:46:43.794Z,95.40
2018-03-16T05:49:12.716Z,95.50
2018-03-16T05:51:40.923Z,95.40
2018-03-16T05:54:09.090Z,95.50
2018-03-16T05:56:37.272Z,95.10
2018-03-16T05:59:05.467Z,94.70
2018-03-16T06:01:33.693Z,94.50
2018-03-16T06:04:01.942Z,94.60
2018-03-16T06:06:31.148Z,94.50
2018-03-16T06:08:59.424Z,94.50
2018-03-16T06:11:27.753Z,94.80
2018-03-16T06:13:56.000Z,95.10
2018-03-16T06:16:24.234Z,94.90
2018-03-16T06:18:52.469Z,95.00
2018-03-16T06:21:20.653Z,95.20
2018-03-16T06:23:48.964Z,95.40
2018-03-16T06:26:17.313Z,95.30
2018-03-16T06:28:45.450Z,95.30
2018-03-16T06:31:13.739Z,95.40
2018-03-16T06:33:42.802Z,95.30
2018-03-16T06:36:10.963Z,95.20
2018-03-16T06:38:39.132Z,95.30
2018-03-16T06:41:07.717Z,95.40
2018-03-16T06:43:35.984Z,95.20
2018-03-16T06:46:06.241Z,95.10
2018-03-16T06:48:34.407Z,95.10
2018-03-16T06:51:02.656Z,95.00
2018-03-16T06:53:31.940Z,94.80
2018-03-16T06:56:00.184Z,94.80
2018-03-16T06:58:28.541Z,95.00
2018-03-16T07:00:56.710Z,94.80
2018-03-16T07:03:24.872Z,94.90
2018-03-16T07:05:53.148Z,94.90
2018-03-16T07:08:21.347Z,94.90
2018-03-16T07:10:49.678Z,94.90
2018-03-16T07:13:17.932Z,95.00
2018-03-16T07:15:46.245Z,94.90
2018-03-16T07:18:14.401Z,94.80
2018-03-16T07:20:43.516Z,94.60
2018-03-16T07:23:11.741Z,94.80
2018-03-16T07:25:40.691Z,95.50
2018-03-16T07:28:09.028Z,95.40
2018-03-16T07:30:37.174Z,95.50
2018-03-16T07:33:05.355Z,95.50
2018-03-16T07:35:34.220Z,95.40
2018-03-16T07:38:02.379Z,95.40
2018-03-16T07:40:30.531Z,95.40
2018-03-16T07:42:59.573Z,95.40
2018-03-16T07:45:33.446Z,95.10
2018-03-16T07:48:01.582Z,94.50
2018-03-16T07:50:29.896Z,94.20
2018-03-16T07:52:58.649Z,93.90
2018-03-16T07:55:27.682Z,94.60
2018-03-16T07:57:56.645Z,94.30
2018-03-16T08:00:25.570Z,94.30
2018-03-16T08:02:53.926Z,93.90
2018-03-16T08:05:22.847Z,94.20
2018-03-16T08:07:51.122Z,94.10
2018-03-16T08:10:19.210Z,93.90
2018-03-16T08:12:47.591Z,93.70
2018-03-16T08:15:15.840Z,93.80
2018-03-16T08:17:43.941Z,93.60
2018-03-16T08:20:12.219Z,93.40
2018-03-16T08:22:40.520Z,93.50
2018-03-16T08:25:08.657Z,93.60
2018-03-16T08:27:37.013Z,93.70
2018-03-16T08:30:05.166Z,93.70
2018-03-16T08:32:34.075Z,93.20
2018-03-16T08:35:02.442Z,93.20
2018-03-16T08:37:31.359Z,93.60
2018-03-16T08:39:59.536Z,93.60
2018-03-16T08:42:27.683Z,93.40
2018-03-16T08:44:56.633Z,91.90
2018-03-16T08:47:24.778Z,91.90
2018-03-16T08:49:53.222Z,91.10
2018-03-16T08:52:22.341Z,90.70
2018-03-16T08:54:50.645Z,90.70
2018-03-16T08:57:18.906Z,90.60
2018-03-16T08:59:50.674Z,90.70
2018-03-16T09:02:18.906Z,90.70
2018-03-16T09:04:47.833Z,90.70
2018-03-16T09:07:16.027Z,90.70
2018-03-16T09:09:44.164Z,90.70
2018-03-16T09:12:12.312Z,91.00
2018-03-16T09:14:41.230Z,90.70
2018-03-16T09:17:09.390Z,90.70
2018-03-16T09:19:37.653Z,90.10
2018-03-16T09:22:06.587Z,88.30
2018-03-16T09:24:34.738Z,88.30
2018-03-16T09:27:02.882Z,88.30
2018-03-16T09:29:31.846Z,89.10
2018-03-16T09:32:00.074Z,89.00
2018-03-16T09:34:28.337Z,89.30
2018-03-16T09:36:57.262Z,88.70
2018-03-16T09:39:25.423Z,88.70
2018-03-16T09:41:53.603Z,88.80
2018-03-16T09:44:21.895Z,88.60
2018-03-16T09:46:50.056Z,89.30
2018-03-16T09:49:18.243Z,89.50
2018-03-16T09:51:46.712Z,89.10
2018-03-16T09:54:14.949Z,88.60
2018-03-16T09:56:43.864Z,87.90
2018-03-16T09:59:12.051Z,87.10
2018-03-16T10:01:40.209Z,86.50
2018-03-16T10:04:08.369Z,85.90
2018-03-16T10:06:36.586Z,84.80
2018-03-16T10:09:04.802Z,85.00
2018-03-16T10:11:32.990Z,84.90
2018-03-16T10:14:01.218Z,82.60
2018-03-16T10:16:29.526Z,83.30
2018-03-16T10:18:57.804Z,82.40
2018-03-16T10:21:26.114Z,82.40
2018-03-16T10:23:54.264Z,79.40
2018-03-16T10:26:22.443Z,79.20
2018-03-16T10:28:51.544Z,78.00
2018-03-16T10:31:20.476Z,76.60
2018-03-16T10:33:49.236Z,76.60
2018-03-16T10:36:17.418Z,76.90
2018-03-16T10:38:45.648Z,75.10
2018-03-16T10:41:13.879Z,75.40
2018-03-16T10:43:42.599Z,75.70
2018-03-16T10:46:10.737Z,76.40
2018-03-16T10:48:38.970Z,75.70
2018-03-16T10:51:07.142Z,76.30
2018-03-16T10:53:35.303Z,75.20
2018-03-16T10:56:03.562Z,74.50
2018-03-16T10:58:31.835Z,73.90
2018-03-16T11:01:00.016Z,73.30
2018-03-16T11:03:33.995Z,73.90
2018-03-16T11:06:02.279Z,73.50
2018-03-16T11:08:31.010Z,71.80
2018-03-16T11:10:59.925Z,71.70
2018-03-16T11:13:29.368Z,70.60
2018-03-16T11:15:57.506Z,70.80
2018-03-16T11:18:25.789Z,69.50
2018-03-16T11:20:53.936Z,69.70
2018-03-16T11:23:23.078Z,67.30
2018-03-16T11:25:51.379Z,67.30
2018-03-16T11:28:19.530Z,67.20
2018-03-16T11:30:47.710Z,66.50
2018-03-16T11:33:15.935Z,67.80
2018-03-16T11:35:44.551Z,67.80
2018-03-16T11:38:12.715Z,68.00
2018-03-16T11:40:40.880Z,67.70
2018-03-16T11:43:10.072Z,67.20
2018-03-16T11:45:38.972Z,67.00
2018-03-16T11:48:07.119Z,67.00
2018-03-16T11:50:35.386Z,66.50
2018-03-16T11:53:03.822Z,63.90
2018-03-16T11:55:32.193Z,63.10
2018-03-16T11:58:00.458Z,63.10
2018-03-16T12:00:28.737Z,62.00
2018-03-16T12:02:57.054Z,62.60
2018-03-16T12:05:25.284Z,61.30
2018-03-16T12:07:53.425Z,62.60
2018-03-16T12:10:21.724Z,62.90
2018-03-16T12:12:50.657Z,61.40
2018-03-16T12:15:18.821Z,61.40
2018-03-16T12:17:47.000Z,60.90
2018-03-16T12:20:15.152Z,59.90
2018-03-16T12:22:43.445Z,59.50
2018-03-16T12:25:11.636Z,60.20
2018-03-16T12:27:39.776Z,59.50
2018-03-16T12:30:08.870Z,59.30
2018-03-16T12:32:37.122Z,59.30
2018-03-16T12:35:06.062Z,57.90
2018-03-16T12:37:34.225Z,57.90
2018-03-16T12:40:02.679Z,58.00
2018-03-16T12:44:59.770Z,58.90
2018-03-16T12:47:27.937Z,58.30
2018-03-16T12:49:56.073Z,57.60
2018-03-16T12:52:24.238Z,60.00
2018-03-16T12:54:52.413Z,59.60
2018-03-16T12:57:20.568Z,59.20
2018-03-16T12:59:48.791Z,57.50
2018-03-16T13:02:17.566Z,56.90
2018-03-16T13:04:46.626Z,55.60
2018-03-16T13:07:14.876Z,55.60
2018-03-16T13:09:43.128Z,55.10
2018-03-16T13:12:11.289Z,55.90
2018-03-16T13:14:40.335Z,55.20
2018-03-16T13:17:08.496Z,55.20
2018-03-16T13:19:36.745Z,55.90
2018-03-16T13:22:05.020Z,55.10
2018-03-16T13:24:33.211Z,55.10
2018-03-16T13:27:01.428Z,55.70
2018-03-16T13:29:29.708Z,57.40
2018-03-16T13:31:57.979Z,57.40
2018-03-16T13:34:26.165Z,54.70
2018-03-16T13:36:54.433Z,54.90
2018-03-16T13:39:22.604Z,54.30
2018-03-16T13:41:50.829Z,55.20
2018-03-16T13:44:19.107Z,54.40
2018-03-16T13:46:47.277Z,54.80
2018-03-16T13:49:15.438Z,54.30
2018-03-16T13:51:44.465Z,55.20
2018-03-16T13:54:13.374Z,55.00
2018-03-16T13:56:41.525Z,55.60
2018-03-16T13:59:09.673Z,55.60
2018-03-16T14:01:38.789Z,55.60
2018-03-16T14:04:07.106Z,55.60
2018-03-16T14:06:35.275Z,55.20
2018-03-16T14:09:03.448Z,55.00
2018-03-16T14:11:31.608Z,54.80
2018-03-16T14:13:59.953Z,55.10
2018-03-16T14:16:28.107Z,55.00
2018-03-16T14:18:57.202Z,57.40
2018-03-16T14:21:26.817Z,58.80
2018-03-16T14:23:55.784Z,60.00
2018-03-16T14:26:23.963Z,59.90
2018-03-16T14:28:52.211Z,61.20
2018-03-16T14:31:20.736Z,59.90
2018-03-16T14:33:49.717Z,58.20
2018-03-16T14:36:18.042Z,58.10
2018-03-16T14:38:46.253Z,58.50
2018-03-16T14:41:15.166Z,56.80
2018-03-16T14:43:44.064Z,56.20
2018-03-16T14:46:12.339Z,56.00
2018-03-16T14:48:41.458Z,56.00
2018-03-16T14:51:09.612Z,56.00
2018-03-16T14:53:37.783Z,55.80
2018-03-16T14:56:06.695Z,56.00
2018-03-16T14:58:34.884Z,55.90
2018-03-16T15:01:03.211Z,56.40
2018-03-16T15:03:31.349Z,56.60
2018-03-16T15:05:59.495Z,56.70
2018-03-16T15:08:27.785Z,56.90
2018-03-16T15:10:55.914Z,56.00
2018-03-16T15:13:24.823Z,54.80
2018-03-16T15:15:53.057Z,54.90
2018-03-16T15:18:21.195Z,52.90
2018-03-16T15:20:49.357Z,53.50
2018-03-16T15:23:17.549Z,52.40
2018-03-16T15:25:45.855Z,53.20
2018-03-16T15:28:13.997Z,54.10
2018-03-16T15:30:42.254Z,62.70
2018-03-16T15:33:10.404Z,65.80
2018-03-16T15:35:39.349Z,67.80
2018-03-16T15:38:07.529Z,68.50
2018-03-16T15:40:35.673Z,68.30
2018-03-16T15:43:04.771Z,68.90
2018-03-16T15:45:32.933Z,68.70
2018-03-16T15:48:01.209Z,69.30
2018-03-16T15:50:29.368Z,69.70
2018-03-16T15:52:58.297Z,70.20
2018-03-16T15:55:27.165Z,70.20
2018-03-16T15:57:55.312Z,70.80
2018-03-16T16:00:24.271Z,70.80
2018-03-16T16:02:53.232Z,71.70
2018-03-16T16:05:21.405Z,71.50
2018-03-16T16:07:50.172Z,73.10
2018-03-16T16:10:18.332Z,74.30
2018-03-16T16:12:47.241Z,76.20
2018-03-16T16:15:15.574Z,76.20
2018-03-16T16:17:43.736Z,75.70
2018-03-16T16:20:12.447Z,76.80
2018-03-16T16:22:40.767Z,76.20
2018-03-16T16:25:08.912Z,76.80
2018-03-16T16:27:37.053Z,77.10
2018-03-16T16:30:05.218Z,77.20
2018-03-16T16:32:33.648Z,77.50
2018-03-16T16:35:02.563Z,77.40
2018-03-16T16:37:30.738Z,77.30
2018-03-16T16:39:59.739Z,77.60
2018-03-16T16:42:28.186Z,77.50
2018-03-16T16:44:56.366Z,76.90
2018-03-16T16:47:24.539Z,77.00
2018-03-16T16:49:52.831Z,77.10
2018-03-16T16:52:21.006Z,78.10
2018-03-16T16:54:49.235Z,77.90
2018-03-16T16:57:17.384Z,78.20
2018-03-16T16:59:45.584Z,78.60
2018-03-16T17:02:13.746Z,79.10
2018-03-16T17:04:41.923Z,79.70
2018-03-16T17:07:10.235Z,80.40
2018-03-16T17:09:38.944Z,80.60
2018-03-16T17:12:07.125Z,80.90
2018-03-16T17:14:35.306Z,80.80
2018-03-16T17:17:03.521Z,80.70
2018-03-16T17:19:31.698Z,80.70
2018-03-16T17:22:00.627Z,81.70
2018-03-16T17:24:29.343Z,81.70
2018-03-16T17:26:57.581Z,81.70
2018-03-16T17:29:25.753Z,82.70
2018-03-16T17:31:54.496Z,83.00
2018-03-16T17:34:22.701Z,82.90
2018-03-16T17:36:50.908Z,83.20
2018-03-16T17:39:19.229Z,83.00
2018-03-16T17:41:47.379Z,83.30
2018-03-16T17:44:16.912Z,83.00
2018-03-16T17:46:45.838Z,83.70
2018-03-16T17:49:14.273Z,83.70
2018-03-16T17:51:42.453Z,83.70
2018-03-16T17:54:10.608Z,84.30
2018-03-16T17:56:38.777Z,84.20
2018-03-16T17:59:07.110Z,83.90
2018-03-16T18:01:35.395Z,83.30
2018-03-16T18:04:03.671Z,82.70
2018-03-16T18:06:31.840Z,82.70
2018-03-16T18:09:00.054Z,82.90
2018-03-16T18:11:28.376Z,83.50
2018-03-16T18:13:57.318Z,84.30
2018-03-16T18:16:25.561Z,84.10
2018-03-16T18:18:53.730Z,84.70
2018-03-16T18:21:21.986Z,84.90
2018-03-16T18:23:51.003Z,84.90
2018-03-16T18:26:19.182Z,84.90
2018-03-16T18:28:48.975Z,85.10
2018-03-16T18:31:17.878Z,85.10
2018-03-16T18:33:46.036Z,85.10
2018-03-16T18:36:14.225Z,84.90
2018-03-16T18:38:43.315Z,85.00
2018-03-16T18:41:12.351Z,85.10
2018-03-16T18:43:40.492Z,85.10
2018-03-16T18:46:08.877Z,84.70
2018-03-16T18:48:37.044Z,84.60
2018-03-16T18:51:05.248Z,85.40
2018-03-16T18:53:33.393Z,84.30
2018-03-16T18:56:04.301Z,84.20
2018-03-16T18:58:32.550Z,84.20
2018-03-16T19:01:01.598Z,84.60
2018-03-16T19:03:29.743Z,84.60
2018-03-16T19:05:58.046Z,84.60
2018-03-16T19:08:26.245Z,84.90
2018-03-16T19:10:55.160Z,84.50
2018-03-16T19:13:23.317Z,84.40
2018-03-16T19:15:51.579Z,84.10
2018-03-16T19:18:20.581Z,84.30
2018-03-16T19:20:48.778Z,84.40
2018-03-16T19:23:17.295Z,84.40
2018-03-16T19:25:46.206Z,84.10
2018-03-16T19:28:14.398Z,84.10
2018-03-16T19:30:42.648Z,84.60
2018-03-16T19:33:10.772Z,84.30
2018-03-16T19:35:39.001Z,84.70
2018-03-16T19:38:07.851Z,84.20
2018-03-16T19:40:36.012Z,84.40
2018-03-16T19:43:04.259Z,84.40
2018-03-16T19:45:32.579Z,84.90
2018-03-16T19:48:00.791Z,84.50
2018-03-16T19:50:29.780Z,84.30
2018-03-16T19:52:58.074Z,84.80
2018-03-16T19:55:26.638Z,84.50
2018-03-16T19:57:55.200Z,84.70
2018-03-16T20:00:24.123Z,85.00
2018-03-16T20:02:52.273Z,84.40
2018-03-16T20:05:21.558Z,84.50
2018-03-16T20:07:49.811Z,84.40
2018-03-16T20:10:18.092Z,84.60
2018-03-16T20:12:46.253Z,83.90
2018-03-16T20:15:14.396Z,83.50
2018-03-16T20:17:42.647Z,83.40
2018-03-16T20:20:11.827Z,84.10
2018-03-16T20:22:40.775Z,84.10
2018-03-16T20:25:08.919Z,84.00
2018-03-16T20:27:38.021Z,83.50
2018-03-16T20:30:06.283Z,83.30
2018-03-16T20:32:35.203Z,83.20
2018-03-16T20:35:03.437Z,83.20
2018-03-16T20:37:31.690Z,83.40
2018-03-16T20:39:59.826Z,83.50
2018-03-16T20:42:28.189Z,83.20
2018-03-16T20:45:00.072Z,83.40
2018-03-16T20:47:28.592Z,83.20
2018-03-16T20:49:58.331Z,83.20
2018-03-16T20:52:27.249Z,83.30
2018-03-16T20:54:55.418Z,83.30
2018-03-16T20:57:23.665Z,83.40
2018-03-16T20:59:51.813Z,84.50
2018-03-16T21:02:19.962Z,83.40
2018-03-16T21:04:48.246Z,83.40
2018-03-16T21:07:16.488Z,83.20
2018-03-16T21:09:44.774Z,83.60
2018-03-16T21:12:12.952Z,83.90
2018-03-16T21:14:41.203Z,83.20
2018-03-16T21:17:09.506Z,83.20
2018-03-16T21:19:37.787Z,83.10
2018-03-16T21:22:06.831Z,83.00
2018-03-16T21:24:35.083Z,82.90
2018-03-16T21:27:04.037Z,82.60
2018-03-16T21:29:32.753Z,82.60
2018-03-16T21:32:00.927Z,82.20
2018-03-16T21:34:29.076Z,82.10
2018-03-16T21:36:57.339Z,82.30
2018-03-16T21:39:25.538Z,82.30
2018-03-16T21:41:53.796Z,81.90
2018-03-16T21:44:21.954Z,82.30
2018-03-16T21:46:50.330Z,82.00
2018-03-16T21:49:19.386Z,81.90
2018-03-16T21:51:48.407Z,82.10
2018-03-16T21:54:17.457Z,82.70
2018-03-16T21:56:45.611Z,82.60
2018-03-16T21:59:13.763Z,82.60
2018-03-16T22:01:42.787Z,82.80
2018-03-16T22:04:11.032Z,82.80
2018-03-16T22:06:39.216Z,82.20
2018-03-16T22:09:07.603Z,82.10
2018-03-16T22:11:35.951Z,82.10
2018-03-16T22:14:04.943Z,81.20
2018-03-16T22:16:33.285Z,81.20
2018-03-16T22:19:01.424Z,81.10
2018-03-16T22:21:33.749Z,82.50
2018-03-16T22:24:02.733Z,81.70
2018-03-16T22:26:31.040Z,81.80
2018-03-16T22:28:59.789Z,81.90
2018-03-16T22:31:28.409Z,82.30
2018-03-16T22:33:57.407Z,82.20
2018-03-16T22:36:26.349Z,81.70
2018-03-16T22:38:56.211Z,81.70
2018-03-16T22:41:25.136Z,81.70
2018-03-16T22:43:53.405Z,81.60
2018-03-16T22:46:22.376Z,81.40
2018-03-16T22:48:51.307Z,81.40
2018-03-16T22:51:19.551Z,81.30
2018-03-16T22:53:47.774Z,81.00
2018-03-16T22:56:15.936Z,81.30
2018-03-16T22:58:44.105Z,81.00
2018-03-16T23:01:13.153Z,80.20
2018-03-16T23:03:42.067Z,80.20
2018-03-16T23:06:10.328Z,80.00
2018-03-16T23:08:38.582Z,80.20
2018-03-16T23:11:07.495Z,80.40
2018-03-16T23:13:35.715Z,80.40
2018-03-16T23:16:04.604Z,80.10
2018-03-16T23:18:33.057Z,80.10
2018-03-16T23:21:01.394Z,79.70
2018-03-16T23:23:30.460Z,80.40
2018-03-16T23:25:58.893Z,80.40
2018-03-16T23:28:27.067Z,79.70
2018-03-16T23:30:55.257Z,80.30
2018-03-16T23:33:23.413Z,80.50
2018-03-16T23:35:51.617Z,80.50
2018-03-16T23:38:19.987Z,80.30
2018-03-16T23:40:48.154Z,79.70
2018-03-16T23:43:16.445Z,79.80
2018-03-16T23:45:44.754Z,79.70
2018-03-16T23:48:13.350Z,79.30
2018-03-16T23:50:41.673Z,79.30
2018-03-16T23:53:09.822Z,79.60
2018-03-16T23:55:38.744Z,79.50
2018-03-16T23:58:06.910Z,79.50
